SVA1166 OERK-OEDF
Flight info
| Callsign | SVA1166 |
|---|---|
| Flight time | 0h 34m |
| Altitude | 23000 |
| Route | EGPIN H744 ITUNI N687 MIBRA |
| Aircraft | A320/M-SDE3FGHIRWY/LB1 |
Departure
| Time | 2026-04-30 08:16 |
|---|---|
| Airport | King Khalid International Airport (OERK) |
Arrival
| Time | 2026-04-30 08:51 |
|---|---|
| Airport | King Fahd International Airport (OEDF) |
| Time | Latitude | Longitude | Altitude | Speed | Heading |
|---|---|---|---|---|---|
| 2026-04-30 08:01 | 24.95694 | 46.70629 | 2031 ft | 0 kts | 207° |
| 2026-04-30 08:09 | 24.95714 | 46.70642 | 2030 ft | 4 kts | 209° |
| 2026-04-30 08:09 | 24.95719 | 46.70645 | 2030 ft | 0 kts | 209° |
| 2026-04-30 08:10 | 24.95722 | 46.70626 | 2036 ft | 4 kts | 315° |
| 2026-04-30 08:11 | 24.95765 | 46.70657 | 2035 ft | 11 kts | 52° |
| 2026-04-30 08:11 | 24.95837 | 46.70730 | 2030 ft | 17 kts | 45° |
| 2026-04-30 08:11 | 24.95902 | 46.70850 | 2034 ft | 21 kts | 60° |
| 2026-04-30 08:11 | 24.95923 | 46.70968 | 2037 ft | 15 kts | 132° |
| 2026-04-30 08:12 | 24.95827 | 46.71035 | 2034 ft | 17 kts | 149° |
| 2026-04-30 08:12 | 24.95717 | 46.71105 | 2033 ft | 19 kts | 150° |
| 2026-04-30 08:12 | 24.95593 | 46.71183 | 2034 ft | 22 kts | 149° |
| 2026-04-30 08:12 | 24.95447 | 46.71274 | 2037 ft | 26 kts | 150° |
| 2026-04-30 08:13 | 24.95279 | 46.71381 | 2035 ft | 29 kts | 150° |
| 2026-04-30 08:13 | 24.95104 | 46.71492 | 2036 ft | 30 kts | 149° |
| 2026-04-30 08:13 | 24.94939 | 46.71595 | 2032 ft | 24 kts | 150° |
| 2026-04-30 08:13 | 24.94789 | 46.71690 | 2034 ft | 25 kts | 150° |
| 2026-04-30 08:14 | 24.94634 | 46.71789 | 2034 ft | 26 kts | 150° |
| 2026-04-30 08:14 | 24.94474 | 46.71890 | 2035 ft | 27 kts | 151° |
| 2026-04-30 08:14 | 24.94317 | 46.71991 | 2035 ft | 23 kts | 140° |
| 2026-04-30 08:14 | 24.94328 | 46.72112 | 2035 ft | 14 kts | 59° |
| 2026-04-30 08:15 | 24.94379 | 46.72207 | 2040 ft | 15 kts | 59° |
| 2026-04-30 08:15 | 24.94447 | 46.72251 | 2039 ft | 13 kts | 333° |
| 2026-04-30 08:15 | 24.94529 | 46.72198 | 2038 ft | 17 kts | 330° |
| 2026-04-30 08:15 | 24.94815 | 46.72017 | 2036 ft | 83 kts | 330° |
| 2026-04-30 08:16 | 24.95494 | 46.71587 | 2034 ft | 141 kts | 330° |
| 2026-04-30 08:16 | 24.96479 | 46.70965 | 2161 ft | 173 kts | 333° |
| 2026-04-30 08:16 | 24.97474 | 46.70301 | 2929 ft | 165 kts | 336° |
| 2026-04-30 08:16 | 24.98494 | 46.69696 | 3469 ft | 168 kts | 342° |
| 2026-04-30 08:17 | 24.99578 | 46.69227 | 3914 ft | 174 kts | 346° |
| 2026-04-30 08:17 | 25.00802 | 46.68784 | 4068 ft | 196 kts | 347° |
| 2026-04-30 08:17 | 25.02180 | 46.68293 | 4272 ft | 220 kts | 346° |
| 2026-04-30 08:17 | 25.03698 | 46.67741 | 4557 ft | 239 kts | 345° |
| 2026-04-30 08:18 | 25.05333 | 46.67128 | 4944 ft | 254 kts | 343° |
| 2026-04-30 08:18 | 25.07028 | 46.66473 | 5527 ft | 262 kts | 341° |
| 2026-04-30 08:18 | 25.08834 | 46.65833 | 5880 ft | 284 kts | 351° |
| 2026-04-30 08:18 | 25.10824 | 46.65990 | 6430 ft | 294 kts | 18° |
| 2026-04-30 08:19 | 25.12806 | 46.66703 | 7098 ft | 299 kts | 19° |
| 2026-04-30 08:19 | 25.14754 | 46.67442 | 7890 ft | 300 kts | 20° |
| 2026-04-30 08:19 | 25.16629 | 46.68487 | 8575 ft | 305 kts | 38° |
| 2026-04-30 08:19 | 25.18090 | 46.70202 | 9269 ft | 310 kts | 59° |
| 2026-04-30 08:20 | 25.18926 | 46.72376 | 10031 ft | 309 kts | 79° |
| 2026-04-30 08:20 | 25.19113 | 46.74766 | 10497 ft | 322 kts | 91° |
| 2026-04-30 08:20 | 25.19127 | 46.77327 | 10689 ft | 345 kts | 91° |
| 2026-04-30 08:20 | 25.19115 | 46.80071 | 10838 ft | 368 kts | 93° |
| 2026-04-30 08:21 | 25.19094 | 46.82977 | 11049 ft | 386 kts | 93° |
| 2026-04-30 08:21 | 25.19107 | 46.85954 | 11559 ft | 394 kts | 88° |
| 2026-04-30 08:21 | 25.19516 | 46.88970 | 12181 ft | 400 kts | 77° |
| 2026-04-30 08:21 | 25.20293 | 46.91938 | 12806 ft | 405 kts | 75° |
| 2026-04-30 08:22 | 25.21092 | 46.94935 | 13422 ft | 409 kts | 75° |
| 2026-04-30 08:22 | 25.21897 | 46.97974 | 13986 ft | 415 kts | 75° |
| 2026-04-30 08:22 | 25.22708 | 47.01055 | 14505 ft | 420 kts | 75° |
| 2026-04-30 08:22 | 25.23527 | 47.04173 | 15037 ft | 424 kts | 75° |
| 2026-04-30 08:23 | 25.24354 | 47.07320 | 15554 ft | 429 kts | 74° |
| 2026-04-30 08:23 | 25.25193 | 47.10504 | 16082 ft | 433 kts | 74° |
| 2026-04-30 08:23 | 25.26037 | 47.13707 | 16602 ft | 437 kts | 74° |
| 2026-04-30 08:23 | 25.26880 | 47.16902 | 17103 ft | 441 kts | 74° |
| 2026-04-30 08:24 | 25.27740 | 47.20173 | 17608 ft | 445 kts | 74° |
| 2026-04-30 08:24 | 25.28605 | 47.23477 | 18094 ft | 449 kts | 74° |
| 2026-04-30 08:24 | 25.29475 | 47.26812 | 18523 ft | 454 kts | 74° |
| 2026-04-30 08:24 | 25.30352 | 47.30171 | 18945 ft | 457 kts | 74° |
| 2026-04-30 08:25 | 25.31234 | 47.33553 | 19364 ft | 460 kts | 74° |
| 2026-04-30 08:25 | 25.32121 | 47.36964 | 19781 ft | 463 kts | 74° |
| 2026-04-30 08:25 | 25.33015 | 47.40400 | 20186 ft | 466 kts | 74° |
| 2026-04-30 08:25 | 25.33916 | 47.43860 | 20589 ft | 469 kts | 74° |
| 2026-04-30 08:26 | 25.34823 | 47.47336 | 20984 ft | 472 kts | 74° |
| 2026-04-30 08:26 | 25.35736 | 47.50843 | 21377 ft | 475 kts | 74° |
| 2026-04-30 08:26 | 25.36652 | 47.54364 | 21757 ft | 478 kts | 74° |
| 2026-04-30 08:26 | 25.37573 | 47.57911 | 22119 ft | 481 kts | 74° |
| 2026-04-30 08:27 | 25.38484 | 47.61433 | 22474 ft | 485 kts | 74° |
| 2026-04-30 08:27 | 25.39412 | 47.65032 | 22806 ft | 488 kts | 74° |
| 2026-04-30 08:27 | 25.40347 | 47.68647 | 22983 ft | 491 kts | 73° |
| 2026-04-30 08:27 | 25.41550 | 47.72223 | 23013 ft | 501 kts | 65° |
| 2026-04-30 08:28 | 25.42999 | 47.75760 | 23005 ft | 510 kts | 65° |
| 2026-04-30 08:28 | 25.44474 | 47.79348 | 23005 ft | 514 kts | 65° |
| 2026-04-30 08:28 | 25.45957 | 47.82958 | 23001 ft | 515 kts | 65° |
| 2026-04-30 08:28 | 25.47434 | 47.86568 | 23003 ft | 516 kts | 65° |
| 2026-04-30 08:29 | 25.48910 | 47.90191 | 22997 ft | 516 kts | 65° |
| 2026-04-30 08:29 | 25.50380 | 47.93812 | 22997 ft | 516 kts | 65° |
| 2026-04-30 08:29 | 25.51847 | 47.97436 | 22992 ft | 515 kts | 65° |
| 2026-04-30 08:29 | 25.53313 | 48.01063 | 22991 ft | 515 kts | 65° |
| 2026-04-30 08:30 | 25.54777 | 48.04685 | 22989 ft | 515 kts | 65° |
| 2026-04-30 08:30 | 25.56223 | 48.08257 | 22985 ft | 515 kts | 65° |
| 2026-04-30 08:30 | 25.57692 | 48.11879 | 22984 ft | 516 kts | 65° |
| 2026-04-30 08:30 | 25.59162 | 48.15503 | 22980 ft | 515 kts | 65° |
| 2026-04-30 08:31 | 25.60632 | 48.19130 | 22981 ft | 515 kts | 65° |
| 2026-04-30 08:31 | 25.62096 | 48.22756 | 22974 ft | 515 kts | 65° |
| 2026-04-30 08:31 | 25.63562 | 48.26390 | 22969 ft | 515 kts | 65° |
| 2026-04-30 08:31 | 25.65023 | 48.30014 | 22966 ft | 515 kts | 65° |
| 2026-04-30 08:32 | 25.66489 | 48.33648 | 22962 ft | 515 kts | 65° |
| 2026-04-30 08:32 | 25.67952 | 48.37270 | 22961 ft | 515 kts | 64° |
| 2026-04-30 08:32 | 25.69668 | 48.40751 | 22953 ft | 514 kts | 57° |
| 2026-04-30 08:32 | 25.71560 | 48.44054 | 22954 ft | 514 kts | 56° |
| 2026-04-30 08:33 | 25.73490 | 48.47411 | 22953 ft | 514 kts | 56° |
| 2026-04-30 08:33 | 25.75412 | 48.50755 | 22955 ft | 514 kts | 56° |
| 2026-04-30 08:33 | 25.77331 | 48.54098 | 22955 ft | 514 kts | 56° |
| 2026-04-30 08:33 | 25.79252 | 48.57449 | 22949 ft | 514 kts | 56° |
| 2026-04-30 08:34 | 25.81166 | 48.60798 | 22947 ft | 514 kts | 56° |
| 2026-04-30 08:34 | 25.83082 | 48.64154 | 22948 ft | 514 kts | 56° |
| 2026-04-30 08:34 | 25.84997 | 48.67511 | 22952 ft | 514 kts | 56° |
| 2026-04-30 08:34 | 25.86909 | 48.70867 | 22950 ft | 515 kts | 56° |
| 2026-04-30 08:35 | 25.88823 | 48.74230 | 22943 ft | 515 kts | 56° |
| 2026-04-30 08:35 | 25.90739 | 48.77598 | 22943 ft | 515 kts | 56° |
| 2026-04-30 08:35 | 25.92651 | 48.80962 | 22944 ft | 515 kts | 56° |
| 2026-04-30 08:35 | 25.94535 | 48.84277 | 22937 ft | 515 kts | 56° |
| 2026-04-30 08:36 | 25.96464 | 48.87645 | 22151 ft | 516 kts | 56° |
| 2026-04-30 08:36 | 25.98433 | 48.90995 | 21015 ft | 517 kts | 55° |
| 2026-04-30 08:36 | 26.00412 | 48.94294 | 20165 ft | 511 kts | 54° |
| 2026-04-30 08:36 | 26.02379 | 48.97547 | 19406 ft | 503 kts | 54° |
| 2026-04-30 08:37 | 26.04330 | 49.00782 | 18654 ft | 499 kts | 54° |
| 2026-04-30 08:37 | 26.06244 | 49.03976 | 17954 ft | 492 kts | 54° |
| 2026-04-30 08:37 | 26.08103 | 49.07094 | 17163 ft | 485 kts | 55° |
| 2026-04-30 08:37 | 26.09935 | 49.10182 | 16001 ft | 476 kts | 55° |
| 2026-04-30 08:38 | 26.11746 | 49.13244 | 15356 ft | 470 kts | 56° |
| 2026-04-30 08:38 | 26.13539 | 49.16278 | 14653 ft | 467 kts | 56° |
| 2026-04-30 08:38 | 26.15317 | 49.19285 | 13959 ft | 463 kts | 56° |
| 2026-04-30 08:38 | 26.17075 | 49.22261 | 13279 ft | 458 kts | 56° |
| 2026-04-30 08:39 | 26.18813 | 49.25205 | 12678 ft | 451 kts | 56° |
| 2026-04-30 08:39 | 26.20530 | 49.28113 | 11998 ft | 446 kts | 56° |
| 2026-04-30 08:39 | 26.21657 | 49.30025 | 11561 ft | 442 kts | 56° |
| 2026-04-30 08:39 | 26.23327 | 49.32854 | 11277 ft | 428 kts | 56° |
| 2026-04-30 08:40 | 26.25432 | 49.36431 | 11111 ft | 403 kts | 56° |
| 2026-04-30 08:40 | 26.26442 | 49.38148 | 11034 ft | 392 kts | 56° |
| 2026-04-30 08:40 | 26.27910 | 49.40638 | 10911 ft | 377 kts | 55° |
| 2026-04-30 08:40 | 26.29325 | 49.43032 | 10793 ft | 362 kts | 55° |
| 2026-04-30 08:41 | 26.30685 | 49.45336 | 10668 ft | 349 kts | 55° |
| 2026-04-30 08:41 | 26.32000 | 49.47567 | 10548 ft | 338 kts | 55° |
| 2026-04-30 08:41 | 26.33268 | 49.49726 | 10365 ft | 329 kts | 55° |
| 2026-04-30 08:41 | 26.34506 | 49.51844 | 10121 ft | 324 kts | 57° |
| 2026-04-30 08:42 | 26.35392 | 49.54127 | 9848 ft | 323 kts | 76° |
| 2026-04-30 08:42 | 26.35510 | 49.56632 | 9351 ft | 323 kts | 101° |
| 2026-04-30 08:42 | 26.34846 | 49.58978 | 9037 ft | 314 kts | 121° |
| 2026-04-30 08:42 | 26.33635 | 49.60936 | 8626 ft | 309 kts | 130° |
| 2026-04-30 08:43 | 26.32327 | 49.62823 | 7930 ft | 307 kts | 130° |
| 2026-04-30 08:43 | 26.31018 | 49.64707 | 7248 ft | 306 kts | 129° |
| 2026-04-30 08:43 | 26.29722 | 49.66573 | 6605 ft | 303 kts | 129° |
| 2026-04-30 08:43 | 26.28444 | 49.68410 | 6153 ft | 293 kts | 128° |
| 2026-04-30 08:44 | 26.27221 | 49.70172 | 6010 ft | 282 kts | 127° |
| 2026-04-30 08:44 | 26.26050 | 49.71871 | 5872 ft | 270 kts | 125° |
| 2026-04-30 08:44 | 26.25229 | 49.73688 | 5755 ft | 257 kts | 104° |
| 2026-04-30 08:44 | 26.25028 | 49.75629 | 5491 ft | 251 kts | 82° |
| 2026-04-30 08:45 | 26.25395 | 49.77504 | 5151 ft | 246 kts | 71° |
| 2026-04-30 08:45 | 26.25879 | 49.79327 | 4816 ft | 244 kts | 71° |
| 2026-04-30 08:45 | 26.26356 | 49.81134 | 4476 ft | 242 kts | 68° |
| 2026-04-30 08:45 | 26.26825 | 49.82927 | 4147 ft | 240 kts | 70° |
| 2026-04-30 08:46 | 26.27357 | 49.84665 | 3819 ft | 232 kts | 55° |
| 2026-04-30 08:46 | 26.28446 | 49.85855 | 3526 ft | 220 kts | 22° |
| 2026-04-30 08:46 | 26.29892 | 49.86176 | 3232 ft | 210 kts | 353° |
| 2026-04-30 08:46 | 26.31269 | 49.85807 | 2977 ft | 196 kts | 346° |
| 2026-04-30 08:47 | 26.32548 | 49.85410 | 2701 ft | 184 kts | 346° |
| 2026-04-30 08:47 | 26.33757 | 49.85035 | 2442 ft | 177 kts | 346° |
| 2026-04-30 08:47 | 26.34921 | 49.84676 | 2210 ft | 168 kts | 346° |
| 2026-04-30 08:47 | 26.36002 | 49.84342 | 1982 ft | 155 kts | 346° |
| 2026-04-30 08:48 | 26.36989 | 49.84035 | 1801 ft | 139 kts | 347° |
| 2026-04-30 08:48 | 26.37919 | 49.83747 | 1614 ft | 136 kts | 346° |
| 2026-04-30 08:48 | 26.38823 | 49.83467 | 1437 ft | 133 kts | 345° |
| 2026-04-30 08:48 | 26.39720 | 49.83190 | 1264 ft | 134 kts | 345° |
| 2026-04-30 08:49 | 26.40613 | 49.82916 | 1081 ft | 134 kts | 345° |
| 2026-04-30 08:49 | 26.41511 | 49.82640 | 909 ft | 134 kts | 345° |
| 2026-04-30 08:49 | 26.42412 | 49.82362 | 749 ft | 133 kts | 349° |
| 2026-04-30 08:49 | 26.43285 | 49.82093 | 578 ft | 132 kts | 351° |
| 2026-04-30 08:50 | 26.44182 | 49.81815 | 390 ft | 135 kts | 349° |
| 2026-04-30 08:50 | 26.45074 | 49.81539 | 167 ft | 130 kts | 348° |
| 2026-04-30 08:50 | 26.45932 | 49.81273 | 88 ft | 122 kts | 348° |
| 2026-04-30 08:50 | 26.46581 | 49.81074 | 89 ft | 72 kts | 345° |
| 2026-04-30 08:51 | 26.46978 | 49.80952 | 87 ft | 52 kts | 345° |
| 2026-04-30 08:51 | 26.47286 | 49.80856 | 89 ft | 42 kts | 344° |
| 2026-04-30 08:51 | 26.47538 | 49.80768 | 86 ft | 32 kts | 334° |
| 2026-04-30 08:51 | 26.47699 | 49.80625 | 87 ft | 27 kts | 316° |
| 2026-04-30 08:52 | 26.47830 | 49.80475 | 85 ft | 26 kts | 310° |
| 2026-04-30 08:52 | 26.47826 | 49.80317 | 85 ft | 18 kts | 252° |
| 2026-04-30 08:52 | 26.47794 | 49.80191 | 86 ft | 16 kts | 254° |
| 2026-04-30 08:52 | 26.47762 | 49.80057 | 86 ft | 21 kts | 255° |
| 2026-04-30 08:53 | 26.47718 | 49.79880 | 94 ft | 26 kts | 255° |
| 2026-04-30 08:53 | 26.47664 | 49.79671 | 94 ft | 29 kts | 254° |
| 2026-04-30 08:53 | 26.47614 | 49.79471 | 94 ft | 20 kts | 254° |
| 2026-04-30 08:53 | 26.47575 | 49.79318 | 89 ft | 21 kts | 254° |
| 2026-04-30 08:54 | 26.47539 | 49.79175 | 87 ft | 16 kts | 254° |
| 2026-04-30 08:54 | 26.47467 | 49.79118 | 87 ft | 14 kts | 162° |
| 2026-04-30 08:54 | 26.47380 | 49.79145 | 86 ft | 12 kts | 164° |
| 2026-04-30 08:54 | 26.47305 | 49.79176 | 87 ft | 11 kts | 153° |
| 2026-04-30 08:55 | 26.47242 | 49.79210 | 85 ft | 10 kts | 154° |
| 2026-04-30 08:55 | 26.47164 | 49.79251 | 86 ft | 15 kts | 154° |
| 2026-04-30 08:55 | 26.47060 | 49.79309 | 85 ft | 18 kts | 153° |
| 2026-04-30 08:55 | 26.46950 | 49.79370 | 87 ft | 17 kts | 153° |
| 2026-04-30 08:56 | 26.46848 | 49.79418 | 86 ft | 15 kts | 164° |
| 2026-04-30 08:56 | 26.46777 | 49.79442 | 87 ft | 0 kts | 154° |
| 2026-04-30 08:56 | 26.46774 | 49.79442 | 87 ft | 1 kts | 167° |
| 2026-04-30 08:56 | 26.46756 | 49.79447 | 87 ft | 4 kts | 167° |
| 2026-04-30 08:57 | 26.46724 | 49.79469 | 86 ft | 6 kts | 119° |
| 2026-04-30 08:57 | 26.46730 | 49.79511 | 85 ft | 6 kts | 77° |
| 2026-04-30 08:57 | 26.46733 | 49.79523 | 86 ft | 1 kts | 75° |
| 2026-04-30 08:57 | 26.46734 | 49.79529 | 86 ft | 0 kts | 75° |